sensor_id;sensor_type;location;lat;lon;timestamp;temperature;humidity
9437;DHT22;4757;59.334;18.034;2022-12-17T00:01:30;-10.10;99.90
9437;DHT22;4757;59.334;18.034;2022-12-17T00:04:17;-10.00;99.90
9437;DHT22;4757;59.334;18.034;2022-12-17T00:07:03;-10.10;99.90
9437;DHT22;4757;59.334;18.034;2022-12-17T00:09:49;-10.00;99.90
9437;DHT22;4757;59.334;18.034;2022-12-17T00:12:34;-10.10;99.90
9437;DHT22;4757;59.334;18.034;2022-12-17T00:15:22;-10.00;99.90
9437;DHT22;4757;59.334;18.034;2022-12-17T00:18:08;-10.00;99.90
9437;DHT22;4757;59.334;18.034;2022-12-17T00:20:58;-10.00;99.90
9437;DHT22;4757;59.334;18.034;2022-12-17T00:23:45;-10.10;99.90
9437;DHT22;4757;59.334;18.034;2022-12-17T00:26:31;-10.10;99.90
9437;DHT22;4757;59.334;18.034;2022-12-17T00:29:17;-10.10;99.90
9437;DHT22;4757;59.334;18.034;2022-12-17T00:32:03;-10.10;99.90
9437;DHT22;4757;59.334;18.034;2022-12-17T00:34:50;-10.10;99.90
9437;DHT22;4757;59.334;18.034;2022-12-17T00:37:36;-10.20;99.90
9437;DHT22;4757;59.334;18.034;2022-12-17T00:40:22;-10.20;99.90
9437;DHT22;4757;59.334;18.034;2022-12-17T00:43:09;-10.30;99.90
9437;DHT22;4757;59.334;18.034;2022-12-17T00:45:56;-10.30;99.90
9437;DHT22;4757;59.334;18.034;2022-12-17T00:48:42;-10.30;99.90
9437;DHT22;4757;59.334;18.034;2022-12-17T00:51:28;-10.30;99.90
9437;DHT22;4757;59.334;18.034;2022-12-17T00:54:14;-10.30;99.90
9437;DHT22;4757;59.334;18.034;2022-12-17T00:57:00;-10.30;99.90
9437;DHT22;4757;59.334;18.034;2022-12-17T00:59:45;-10.20;99.90
9437;DHT22;4757;59.334;18.034;2022-12-17T01:02:31;-10.20;99.90
9437;DHT22;4757;59.334;18.034;2022-12-17T01:05:17;-10.00;99.90
9437;DHT22;4757;59.334;18.034;2022-12-17T01:08:12;-10.00;99.90
9437;DHT22;4757;59.334;18.034;2022-12-17T01:11:02;-10.00;99.90
9437;DHT22;4757;59.334;18.034;2022-12-17T01:13:48;-10.00;99.90
9437;DHT22;4757;59.334;18.034;2022-12-17T01:16:34;-9.90;99.90
9437;DHT22;4757;59.334;18.034;2022-12-17T01:19:22;-9.90;99.90
9437;DHT22;4757;59.334;18.034;2022-12-17T01:22:07;-9.90;99.90
9437;DHT22;4757;59.334;18.034;2022-12-17T01:24:53;-9.90;99.90
9437;DHT22;4757;59.334;18.034;2022-12-17T01:27:39;-9.80;99.90
9437;DHT22;4757;59.334;18.034;2022-12-17T01:30:25;-9.80;99.90
9437;DHT22;4757;59.334;18.034;2022-12-17T01:33:10;-9.60;99.90
9437;DHT22;4757;59.334;18.034;2022-12-17T01:35:57;-9.70;99.90
9437;DHT22;4757;59.334;18.034;2022-12-17T01:38:43;-9.70;99.90
9437;DHT22;4757;59.334;18.034;2022-12-17T01:41:29;-9.70;99.90
9437;DHT22;4757;59.334;18.034;2022-12-17T01:44:44;-9.80;99.90
9437;DHT22;4757;59.334;18.034;2022-12-17T01:50:25;-9.60;99.90
9437;DHT22;4757;59.334;18.034;2022-12-17T01:53:12;-9.50;99.90
9437;DHT22;4757;59.334;18.034;2022-12-17T01:56:01;-9.50;99.90
9437;DHT22;4757;59.334;18.034;2022-12-17T01:58:47;-9.40;99.90
9437;DHT22;4757;59.334;18.034;2022-12-17T02:01:33;-9.40;99.90
9437;DHT22;4757;59.334;18.034;2022-12-17T02:04:19;-9.30;99.90
9437;DHT22;4757;59.334;18.034;2022-12-17T02:13:31;-9.00;99.90
9437;DHT22;4757;59.334;18.034;2022-12-17T02:16:29;-8.90;99.90
9437;DHT22;4757;59.334;18.034;2022-12-17T02:19:42;-8.80;99.90
9437;DHT22;4757;59.334;18.034;2022-12-17T16:13:26;-1.10;99.90
9437;DHT22;4757;59.334;18.034;2022-12-17T16:15:57;-1.10;99.90
9437;DHT22;4757;59.334;18.034;2022-12-17T16:18:30;-1.10;99.90
9437;DHT22;4757;59.334;18.034;2022-12-17T16:21:06;-1.10;99.90
9437;DHT22;4757;59.334;18.034;2022-12-17T16:23:33;-1.10;99.90
9437;DHT22;4757;59.334;18.034;2022-12-17T16:26:02;-1.10;99.90
9437;DHT22;4757;59.334;18.034;2022-12-17T16:28:30;-1.10;99.90
9437;DHT22;4757;59.334;18.034;2022-12-17T16:30:58;-1.10;99.90
9437;DHT22;4757;59.334;18.034;2022-12-17T16:33:26;-1.10;99.90
9437;DHT22;4757;59.334;18.034;2022-12-17T16:36:01;-1.00;99.90
9437;DHT22;4757;59.334;18.034;2022-12-17T16:38:29;-1.10;99.90
9437;DHT22;4757;59.334;18.034;2022-12-17T16:41:01;-1.10;99.90
9437;DHT22;4757;59.334;18.034;2022-12-17T16:43:32;-1.00;99.90
9437;DHT22;4757;59.334;18.034;2022-12-17T16:46:01;-1.00;99.90
9437;DHT22;4757;59.334;18.034;2022-12-17T16:48:36;-1.00;99.90
9437;DHT22;4757;59.334;18.034;2022-12-17T16:51:19;-1.00;99.90
9437;DHT22;4757;59.334;18.034;2022-12-17T16:53:54;-1.10;99.90
9437;DHT22;4757;59.334;18.034;2022-12-17T16:56:24;-1.00;99.90
9437;DHT22;4757;59.334;18.034;2022-12-17T16:58:53;-1.10;99.90
9437;DHT22;4757;59.334;18.034;2022-12-17T17:01:23;-1.10;99.90
9437;DHT22;4757;59.334;18.034;2022-12-17T17:03:51;-1.10;99.90
9437;DHT22;4757;59.334;18.034;2022-12-17T17:06:18;-1.10;99.90
9437;DHT22;4757;59.334;18.034;2022-12-17T17:08:49;-1.10;99.90
9437;DHT22;4757;59.334;18.034;2022-12-17T17:11:20;-1.00;99.90
9437;DHT22;4757;59.334;18.034;2022-12-17T17:13:50;-1.10;99.90
9437;DHT22;4757;59.334;18.034;2022-12-17T17:16:23;-1.20;99.90
9437;DHT22;4757;59.334;18.034;2022-12-17T17:18:51;-1.20;99.90
9437;DHT22;4757;59.334;18.034;2022-12-17T17:21:28;-1.10;99.90
9437;DHT22;4757;59.334;18.034;2022-12-17T17:23:58;-1.10;99.90
9437;DHT22;4757;59.334;18.034;2022-12-17T17:26:28;-1.20;99.90
9437;DHT22;4757;59.334;18.034;2022-12-17T17:28:57;-1.20;99.90
9437;DHT22;4757;59.334;18.034;2022-12-17T17:31:29;-1.10;99.90
9437;DHT22;4757;59.334;18.034;2022-12-17T17:34:17;-1.20;99.90
9437;DHT22;4757;59.334;18.034;2022-12-17T17:36:47;-1.30;99.90
9437;DHT22;4757;59.334;18.034;2022-12-17T17:39:15;-1.30;99.90
9437;DHT22;4757;59.334;18.034;2022-12-17T17:41:43;-1.40;99.90
9437;DHT22;4757;59.334;18.034;2022-12-17T17:44:11;-1.30;99.90
9437;DHT22;4757;59.334;18.034;2022-12-17T17:46:39;-1.30;99.90
9437;DHT22;4757;59.334;18.034;2022-12-17T17:49:07;-1.30;99.90
9437;DHT22;4757;59.334;18.034;2022-12-17T17:51:37;-1.30;99.90
9437;DHT22;4757;59.334;18.034;2022-12-17T17:54:26;-1.30;99.90
9437;DHT22;4757;59.334;18.034;2022-12-17T17:56:54;-1.30;99.90
9437;DHT22;4757;59.334;18.034;2022-12-17T17:59:21;-1.30;99.90
9437;DHT22;4757;59.334;18.034;2022-12-17T18:01:58;-1.30;99.90
9437;DHT22;4757;59.334;18.034;2022-12-17T18:04:26;-1.30;99.90
9437;DHT22;4757;59.334;18.034;2022-12-17T18:06:53;-1.30;99.90
9437;DHT22;4757;59.334;18.034;2022-12-17T18:09:40;-1.30;99.90
9437;DHT22;4757;59.334;18.034;2022-12-17T18:12:08;-1.20;99.90
9437;DHT22;4757;59.334;18.034;2022-12-17T18:14:55;-1.30;99.90
9437;DHT22;4757;59.334;18.034;2022-12-17T18:17:47;-1.30;99.90
9437;DHT22;4757;59.334;18.034;2022-12-17T18:20:15;-1.30;99.90
9437;DHT22;4757;59.334;18.034;2022-12-17T18:22:43;-1.40;99.90
9437;DHT22;4757;59.334;18.034;2022-12-17T18:25:12;-1.40;99.90
9437;DHT22;4757;59.334;18.034;2022-12-17T18:27:39;-1.30;99.90
9437;DHT22;4757;59.334;18.034;2022-12-17T18:30:07;-1.40;99.90
9437;DHT22;4757;59.334;18.034;2022-12-17T18:32:34;-1.40;99.90
9437;DHT22;4757;59.334;18.034;2022-12-17T18:35:02;-1.40;99.90
9437;DHT22;4757;59.334;18.034;2022-12-17T18:37:29;-1.50;99.90
9437;DHT22;4757;59.334;18.034;2022-12-17T18:39:56;-1.40;99.90
9437;DHT22;4757;59.334;18.034;2022-12-17T18:42:23;-1.40;99.90
9437;DHT22;4757;59.334;18.034;2022-12-17T18:45:12;-1.50;99.90
9437;DHT22;4757;59.334;18.034;2022-12-17T18:47:40;-1.50;99.90
9437;DHT22;4757;59.334;18.034;2022-12-17T18:50:08;-1.50;99.90
9437;DHT22;4757;59.334;18.034;2022-12-17T18:52:35;-1.50;99.90
9437;DHT22;4757;59.334;18.034;2022-12-17T18:55:04;-1.50;99.90
9437;DHT22;4757;59.334;18.034;2022-12-17T18:57:31;-1.50;99.90
9437;DHT22;4757;59.334;18.034;2022-12-17T18:59:58;-1.60;99.90
9437;DHT22;4757;59.334;18.034;2022-12-17T19:02:25;-1.60;99.90
9437;DHT22;4757;59.334;18.034;2022-12-17T19:04:53;-1.50;99.90
9437;DHT22;4757;59.334;18.034;2022-12-17T19:07:20;-1.50;99.90
9437;DHT22;4757;59.334;18.034;2022-12-17T19:09:49;-1.60;99.90
9437;DHT22;4757;59.334;18.034;2022-12-17T19:12:16;-1.60;99.90
9437;DHT22;4757;59.334;18.034;2022-12-17T19:14:43;-1.60;99.90
9437;DHT22;4757;59.334;18.034;2022-12-17T19:17:10;-1.60;99.90
9437;DHT22;4757;59.334;18.034;2022-12-17T19:19:37;-1.70;99.90
9437;DHT22;4757;59.334;18.034;2022-12-17T19:22:04;-1.70;99.90
9437;DHT22;4757;59.334;18.034;2022-12-17T19:24:33;-1.70;99.90
9437;DHT22;4757;59.334;18.034;2022-12-17T19:27:02;-1.70;99.90
9437;DHT22;4757;59.334;18.034;2022-12-17T19:29:30;-1.70;99.90
9437;DHT22;4757;59.334;18.034;2022-12-17T19:31:59;-1.70;99.90
9437;DHT22;4757;59.334;18.034;2022-12-17T19:34:26;-1.50;99.90
9437;DHT22;4757;59.334;18.034;2022-12-17T19:36:53;-1.60;99.90
9437;DHT22;4757;59.334;18.034;2022-12-17T19:39:20;-1.70;99.90
9437;DHT22;4757;59.334;18.034;2022-12-17T19:41:48;-1.70;99.90
9437;DHT22;4757;59.334;18.034;2022-12-17T19:44:16;-1.80;99.90
9437;DHT22;4757;59.334;18.034;2022-12-17T19:46:46;-1.80;99.90
9437;DHT22;4757;59.334;18.034;2022-12-17T19:49:14;-1.80;99.90
9437;DHT22;4757;59.334;18.034;2022-12-17T19:51:42;-1.80;99.90
9437;DHT22;4757;59.334;18.034;2022-12-17T19:54:12;-1.80;99.90
9437;DHT22;4757;59.334;18.034;2022-12-17T19:56:42;-1.80;99.90
9437;DHT22;4757;59.334;18.034;2022-12-17T19:59:10;-1.80;99.90
9437;DHT22;4757;59.334;18.034;2022-12-17T20:01:43;-1.80;99.90
9437;DHT22;4757;59.334;18.034;2022-12-17T20:04:12;-1.80;99.90
9437;DHT22;4757;59.334;18.034;2022-12-17T20:06:40;-1.80;99.90
9437;DHT22;4757;59.334;18.034;2022-12-17T20:09:09;-1.80;99.90
9437;DHT22;4757;59.334;18.034;2022-12-17T20:11:36;-1.80;99.90
9437;DHT22;4757;59.334;18.034;2022-12-17T20:14:16;-1.80;99.90
9437;DHT22;4757;59.334;18.034;2022-12-17T20:16:45;-1.80;99.90
9437;DHT22;4757;59.334;18.034;2022-12-17T20:19:19;-1.90;99.90
9437;DHT22;4757;59.334;18.034;2022-12-17T20:21:46;-1.90;99.90
9437;DHT22;4757;59.334;18.034;2022-12-17T20:24:14;-1.90;99.90
9437;DHT22;4757;59.334;18.034;2022-12-17T20:26:42;-1.90;99.90
9437;DHT22;4757;59.334;18.034;2022-12-17T20:29:11;-1.90;99.90
9437;DHT22;4757;59.334;18.034;2022-12-17T20:31:38;-1.80;99.90
9437;DHT22;4757;59.334;18.034;2022-12-17T20:34:13;-1.80;99.90
9437;DHT22;4757;59.334;18.034;2022-12-17T20:36:41;-1.80;99.90
9437;DHT22;4757;59.334;18.034;2022-12-17T20:39:10;-1.80;99.90
9437;DHT22;4757;59.334;18.034;2022-12-17T20:41:37;-1.70;99.90
9437;DHT22;4757;59.334;18.034;2022-12-17T20:44:09;-1.70;99.90
9437;DHT22;4757;59.334;18.034;2022-12-17T20:46:37;-1.70;99.90
9437;DHT22;4757;59.334;18.034;2022-12-17T20:49:04;-1.70;99.90
9437;DHT22;4757;59.334;18.034;2022-12-17T20:51:33;-1.70;99.90
9437;DHT22;4757;59.334;18.034;2022-12-17T20:54:02;-1.70;99.90
9437;DHT22;4757;59.334;18.034;2022-12-17T20:56:31;-1.60;99.90
9437;DHT22;4757;59.334;18.034;2022-12-17T20:59:02;-1.60;99.90
9437;DHT22;4757;59.334;18.034;2022-12-17T21:01:32;-1.60;99.90
9437;DHT22;4757;59.334;18.034;2022-12-17T21:04:00;-1.60;99.90
9437;DHT22;4757;59.334;18.034;2022-12-17T21:06:30;-1.50;99.90
9437;DHT22;4757;59.334;18.034;2022-12-17T21:08:58;-1.50;99.90
9437;DHT22;4757;59.334;18.034;2022-12-17T21:11:28;-1.50;99.90
9437;DHT22;4757;59.334;18.034;2022-12-17T21:13:56;-1.50;99.90
9437;DHT22;4757;59.334;18.034;2022-12-17T21:16:27;-1.50;99.90
9437;DHT22;4757;59.334;18.034;2022-12-17T21:18:57;-1.40;99.90
9437;DHT22;4757;59.334;18.034;2022-12-17T21:21:27;-1.40;99.90
9437;DHT22;4757;59.334;18.034;2022-12-17T21:23:55;-1.40;99.90
9437;DHT22;4757;59.334;18.034;2022-12-17T21:26:25;-1.40;99.90
9437;DHT22;4757;59.334;18.034;2022-12-17T21:28:54;-1.40;99.90
9437;DHT22;4757;59.334;18.034;2022-12-17T21:31:31;-1.20;99.90
9437;DHT22;4757;59.334;18.034;2022-12-17T21:34:01;-1.30;99.90
9437;DHT22;4757;59.334;18.034;2022-12-17T21:36:30;-1.30;99.90
9437;DHT22;4757;59.334;18.034;2022-12-17T21:38:58;-1.30;99.90
9437;DHT22;4757;59.334;18.034;2022-12-17T21:41:30;-1.30;99.90
9437;DHT22;4757;59.334;18.034;2022-12-17T21:44:01;-1.40;99.90
9437;DHT22;4757;59.334;18.034;2022-12-17T21:46:28;-1.40;99.90
9437;DHT22;4757;59.334;18.034;2022-12-17T21:48:57;-1.40;99.90
9437;DHT22;4757;59.334;18.034;2022-12-17T21:51:25;-1.40;99.90
9437;DHT22;4757;59.334;18.034;2022-12-17T21:53:56;-1.40;99.90
9437;DHT22;4757;59.334;18.034;2022-12-17T21:56:23;-1.40;99.90
9437;DHT22;4757;59.334;18.034;2022-12-17T21:58:56;-1.40;99.90
9437;DHT22;4757;59.334;18.034;2022-12-17T22:01:26;-1.40;99.90
9437;DHT22;4757;59.334;18.034;2022-12-17T22:03:57;-1.40;99.90
9437;DHT22;4757;59.334;18.034;2022-12-17T22:06:26;-1.40;99.90
9437;DHT22;4757;59.334;18.034;2022-12-17T22:08:59;-1.40;99.90
9437;DHT22;4757;59.334;18.034;2022-12-17T22:11:38;-1.40;99.90
9437;DHT22;4757;59.334;18.034;2022-12-17T22:14:05;-1.40;99.90
9437;DHT22;4757;59.334;18.034;2022-12-17T22:16:45;-1.30;99.90
9437;DHT22;4757;59.334;18.034;2022-12-17T22:19:21;-1.30;99.90
9437;DHT22;4757;59.334;18.034;2022-12-17T22:21:50;-1.40;99.90
9437;DHT22;4757;59.334;18.034;2022-12-17T22:24:23;-1.30;99.90
9437;DHT22;4757;59.334;18.034;2022-12-17T22:26:50;-1.30;99.90
9437;DHT22;4757;59.334;18.034;2022-12-17T22:29:26;-1.30;99.90
9437;DHT22;4757;59.334;18.034;2022-12-17T22:32:17;-1.30;99.90
9437;DHT22;4757;59.334;18.034;2022-12-17T22:35:06;-1.30;99.90
9437;DHT22;4757;59.334;18.034;2022-12-17T22:37:54;-1.20;99.90
9437;DHT22;4757;59.334;18.034;2022-12-17T22:40:42;-1.30;99.90
9437;DHT22;4757;59.334;18.034;2022-12-17T22:43:29;-1.30;99.90
9437;DHT22;4757;59.334;18.034;2022-12-17T22:46:16;-1.30;99.90
9437;DHT22;4757;59.334;18.034;2022-12-17T22:48:43;-1.20;99.90
9437;DHT22;4757;59.334;18.034;2022-12-17T22:51:11;-1.30;99.90
9437;DHT22;4757;59.334;18.034;2022-12-17T22:53:53;-1.20;99.90
9437;DHT22;4757;59.334;18.034;2022-12-17T22:56:21;-1.20;99.90
9437;DHT22;4757;59.334;18.034;2022-12-17T22:59:14;-1.20;99.90
9437;DHT22;4757;59.334;18.034;2022-12-17T23:01:42;-1.10;99.90
9437;DHT22;4757;59.334;18.034;2022-12-17T23:04:12;-1.20;99.90
9437;DHT22;4757;59.334;18.034;2022-12-17T23:06:41;-1.20;99.90
9437;DHT22;4757;59.334;18.034;2022-12-17T23:09:14;-1.10;99.90
9437;DHT22;4757;59.334;18.034;2022-12-17T23:11:45;-1.10;99.90
9437;DHT22;4757;59.334;18.034;2022-12-17T23:14:12;-1.10;99.90
9437;DHT22;4757;59.334;18.034;2022-12-17T23:16:39;-1.10;99.90
9437;DHT22;4757;59.334;18.034;2022-12-17T23:19:07;-1.10;99.90
9437;DHT22;4757;59.334;18.034;2022-12-17T23:21:35;-1.10;99.90
9437;DHT22;4757;59.334;18.034;2022-12-17T23:24:04;-1.10;99.90
9437;DHT22;4757;59.334;18.034;2022-12-17T23:26:33;-1.10;99.90
9437;DHT22;4757;59.334;18.034;2022-12-17T23:29:04;-1.00;99.90
9437;DHT22;4757;59.334;18.034;2022-12-17T23:31:34;-1.10;99.90
9437;DHT22;4757;59.334;18.034;2022-12-17T23:34:03;-1.10;99.90
9437;DHT22;4757;59.334;18.034;2022-12-17T23:36:30;-1.10;99.90
9437;DHT22;4757;59.334;18.034;2022-12-17T23:38:57;-1.00;99.90
9437;DHT22;4757;59.334;18.034;2022-12-17T23:41:27;-1.00;99.90
9437;DHT22;4757;59.334;18.034;2022-12-17T23:43:54;-1.00;99.90
9437;DHT22;4757;59.334;18.034;2022-12-17T23:46:23;-1.00;99.90
9437;DHT22;4757;59.334;18.034;2022-12-17T23:48:51;-0.90;99.90
9437;DHT22;4757;59.334;18.034;2022-12-17T23:51:20;-0.90;99.90
9437;DHT22;4757;59.334;18.034;2022-12-17T23:53:48;-0.90;99.90
9437;DHT22;4757;59.334;18.034;2022-12-17T23:56:21;-0.90;99.90
9437;DHT22;4757;59.334;18.034;2022-12-17T23:58:52;-0.90;99.90
